Allison, North Carolina
Current Conditions -  °F | °C
As of 11:53 PM on Tuesday 21 Oct 2014 (Local Time) from KDAN Reporting Station
Overcast Overcast  
Wind Chill: 54°   Ceiling: 9000
Heat Index: 54°   Visibility: 10mi
Dew Point: 40°   Wind: 9mph
Humidity: 59%   Direction: 290°WNW
Pressure: 29.96"   Gusts: NA
Location:  36.4355°N, 79.5464°W
Report Text: KDAN 220353Z AUTO 29008KT 10SM OVC090 12/04 A2996 RMK AO2 SLP136 T01220044
Loading
Personal Weather Stations






























Interactive Weather Map New forecast layout! Learn more

10-Day Weather Forecast

Advertisements
Track Severe Weather on mobile